IN-0031 weather

Vairengte Helipad
Mizoram, India

Public forecast

Using degrees Celsius for public forecast. Weather courtesy of forecast.io.

Closest aviation weather report (METAR) to Vairengte Helipad

Report is more than 6 hours old.

Closest report is Lengpui Airport, 39.0 nm (72.3 km) S. Retrieved 2020/02/21 11:00 UTC (13 hours ago):

VELP 211100Z 01003KT 5000 HZ NSC 24/17 Q1018 BECMG 3000 HZ

Closest aviation forecast (TAF) to Vairengte Helipad

Forecast is more than 6 hours old.

Closest forecast is Silchar Airport, 28.8 nm (53.3 km) NNE. Retrieved 2020/02/21 12:30 UTC (11 hours ago):

TAF VEKU 210930Z 2112/2124 20004KT 6000 NSC BECMG 2118/21XX 06002KT 5000 BR/HZ NSC